Time;durP1;ratioP1;P1;durP2;ratioP2;P2;SDS_P1;SDS_P2;PMS_P1;PMS_P2;Temp;Humidity;BMP_temperature;BMP_pressure;BME280_temperature;BME280_humidity;BME280_pressure;Samples;Min_cycle;Max_cycle;Signal;HPM_P1;HPM_P2
2020/12/12 00:01:39;;;;;;;7.70;4.30;;;5.10;99.90;;;;;;5005126;28;20061;-68
2020/12/12 00:04:05;;;;;;;10.75;5.22;;;5.10;99.90;;;;;;4992927;28;20084;-68
2020/12/12 00:06:32;;;;;;;9.40;5.18;;;5.10;99.90;;;;;;4992747;28;20460;-68
2020/12/12 00:08:58;;;;;;;15.27;7.03;;;5.10;99.90;;;;;;4975004;28;20386;-68
2020/12/12 00:11:25;;;;;;;12.25;6.00;;;5.10;99.90;;;;;;4999944;28;20056;-68
2020/12/12 00:13:51;;;;;;;8.82;4.68;;;5.10;99.90;;;;;;4991680;28;20089;-68
2020/12/12 00:16:18;;;;;;;10.32;5.43;;;5.10;99.90;;;;;;4999160;28;20045;-68
2020/12/12 00:18:45;;;;;;;11.07;5.10;;;5.10;99.90;;;;;;4986827;28;20047;-68
2020/12/12 00:21:13;;;;;;;8.40;4.50;;;5.10;99.90;;;;;;4992894;28;20038;-68
2020/12/12 00:23:39;;;;;;;10.27;4.68;;;5.10;99.90;;;;;;4995943;28;20047;-68
2020/12/12 00:26:05;;;;;;;10.43;4.78;;;5.10;99.90;;;;;;4994487;28;20129;-68
2020/12/12 00:28:34;;;;;;;9.18;4.35;;;5.10;99.90;;;;;;4992247;28;20050;-68
2020/12/12 00:31:01;;;;;;;8.43;4.30;;;5.10;99.90;;;;;;4990023;28;20053;-68
2020/12/12 00:33:28;;;;;;;10.73;5.22;;;5.20;99.90;;;;;;4990248;28;20054;-68
2020/12/12 00:35:54;;;;;;;8.27;4.07;;;5.20;99.90;;;;;;4994020;28;20050;-68
2020/12/12 00:38:21;;;;;;;10.07;4.70;;;5.20;99.90;;;;;;4991022;28;20492;-68
2020/12/12 00:40:58;;;;;;;12.88;5.75;;;5.20;99.90;;;;;;4991918;28;20046;-68
2020/12/12 00:43:24;;;;;;;8.40;4.80;;;5.20;99.90;;;;;;4993583;28;20133;-68
2020/12/12 00:45:52;;;;;;;9.88;4.57;;;5.20;99.90;;;;;;4990565;28;20078;-68
2020/12/12 00:48:19;;;;;;;11.63;4.72;;;5.20;99.90;;;;;;4991638;28;20441;-68
2020/12/12 00:50:47;;;;;;;10.18;4.80;;;5.20;99.90;;;;;;4987320;28;20472;-68
2020/12/12 00:53:13;;;;;;;10.07;4.95;;;5.20;99.90;;;;;;4989454;28;20046;-68
2020/12/12 00:55:40;;;;;;;9.35;4.35;;;5.20;99.90;;;;;;4991498;28;20046;-68
2020/12/12 00:58:06;;;;;;;8.55;4.50;;;5.20;99.90;;;;;;4992452;28;20042;-68
2020/12/12 01:00:33;;;;;;;11.65;5.03;;;5.20;99.90;;;;;;4992989;28;20060;-68
2020/12/12 01:03:03;;;;;;;9.15;4.72;;;5.20;99.90;;;;;;4988525;28;20419;-68
2020/12/12 01:05:34;;;;;;;10.00;4.55;;;5.20;99.90;;;;;;4992094;28;20050;-68
2020/12/12 01:08:01;;;;;;;9.63;5.50;;;5.20;99.90;;;;;;4992219;28;20050;-68
2020/12/12 01:10:29;;;;;;;9.15;5.18;;;5.30;99.90;;;;;;4993357;28;20046;-68
2020/12/12 01:12:55;;;;;;;8.38;4.25;;;5.30;99.90;;;;;;4990336;28;20133;-68
2020/12/12 01:15:22;;;;;;;11.45;5.82;;;5.30;99.90;;;;;;4992472;28;20046;-68
2020/12/12 01:17:49;;;;;;;11.02;5.55;;;5.30;99.90;;;;;;4991100;28;20042;-68
2020/12/12 01:20:16;;;;;;;8.93;4.43;;;5.30;99.90;;;;;;4992532;28;20085;-68
2020/12/12 01:22:42;;;;;;;11.35;5.20;;;5.30;99.90;;;;;;4990978;28;20057;-68
2020/12/12 01:25:10;;;;;;;8.20;4.47;;;5.30;99.90;;;;;;4992966;28;20043;-68
2020/12/12 01:27:36;;;;;;;9.05;4.85;;;5.30;99.90;;;;;;4991358;28;20573;-68
2020/12/12 01:30:04;;;;;;;9.07;4.78;;;5.30;99.90;;;;;;4992395;28;20049;-68
2020/12/12 01:32:30;;;;;;;8.95;4.93;;;5.30;99.90;;;;;;4990420;28;20077;-68
2020/12/12 01:34:57;;;;;;;9.13;4.60;;;5.30;99.90;;;;;;4988678;28;20047;-68
2020/12/12 01:37:23;;;;;;;8.75;4.22;;;5.30;99.90;;;;;;4992082;28;20046;-68
2020/12/12 01:39:50;;;;;;;12.75;5.45;;;5.30;99.90;;;;;;4992925;28;20052;-68
2020/12/12 01:42:16;;;;;;;17.02;5.47;;;5.40;99.90;;;;;;4991169;28;20046;-68
2020/12/12 01:44:43;;;;;;;9.23;5.10;;;5.30;99.90;;;;;;4988212;28;20047;-69
2020/12/12 01:47:09;;;;;;;8.68;4.18;;;5.40;99.90;;;;;;4991360;28;20054;-68
2020/12/12 01:49:36;;;;;;;9.27;4.90;;;5.40;99.90;;;;;;4991583;28;20085;-68
2020/12/12 01:52:04;;;;;;;9.40;5.22;;;5.40;99.90;;;;;;4989217;28;20070;-68
2020/12/12 01:54:32;;;;;;;10.85;5.28;;;5.40;99.90;;;;;;4992364;28;20133;-68
2020/12/12 01:57:03;;;;;;;9.85;4.70;;;5.40;99.90;;;;;;4990684;28;20042;-68
2020/12/12 01:59:30;;;;;;;12.43;5.72;;;5.40;99.90;;;;;;4991169;28;20490;-68
2020/12/12 02:02:00;;;;;;;9.35;4.78;;;5.40;99.90;;;;;;4975433;28;20109;-67
2020/12/12 02:04:27;;;;;;;11.23;4.75;;;5.40;99.90;;;;;;4988227;28;20117;-68
2020/12/12 02:06:56;;;;;;;10.75;4.63;;;5.40;99.90;;;;;;4990760;28;20057;-68
2020/12/12 02:09:22;;;;;;;9.98;4.47;;;5.40;99.90;;;;;;4991173;28;20481;-67
2020/12/12 02:11:50;;;;;;;10.57;4.75;;;5.40;99.90;;;;;;4991310;28;20054;-68
2020/12/12 02:14:17;;;;;;;7.22;3.97;;;5.40;99.90;;;;;;4991052;28;20058;-68
2020/12/12 02:17:03;;;;;;;8.00;4.15;;;5.40;99.90;;;;;;4991838;28;20078;-68
2020/12/12 02:19:29;;;;;;;7.63;4.35;;;5.40;99.90;;;;;;4990940;28;20133;-68
2020/12/12 02:21:56;;;;;;;8.00;4.60;;;5.40;99.90;;;;;;4987744;28;20380;-68
2020/12/12 02:24:23;;;;;;;8.90;4.40;;;5.40;99.90;;;;;;4988813;28;20054;-68
2020/12/12 02:26:52;;;;;;;8.38;4.28;;;5.40;99.90;;;;;;4990936;28;20050;-68
2020/12/12 02:29:18;;;;;;;9.27;4.18;;;5.40;99.90;;;;;;4990981;28;20046;-68
2020/12/12 02:31:46;;;;;;;8.43;4.50;;;5.40;99.90;;;;;;4984434;28;20385;-67
2020/12/12 02:34:13;;;;;;;9.67;5.20;;;5.40;99.90;;;;;;4986306;28;20129;-68
2020/12/12 02:36:40;;;;;;;17.63;5.05;;;5.40;99.90;;;;;;4990523;28;20118;-68
2020/12/12 02:39:10;;;;;;;10.70;4.72;;;5.40;99.90;;;;;;4988730;28;20050;-67
2020/12/12 02:41:37;;;;;;;7.88;3.80;;;5.40;99.90;;;;;;4977887;28;20038;-68
2020/12/12 02:44:03;;;;;;;9.82;5.00;;;5.40;99.90;;;;;;4981195;28;20488;-67
2020/12/12 02:46:29;;;;;;;11.20;4.93;;;5.40;99.90;;;;;;4992077;28;20137;-68
2020/12/12 02:48:56;;;;;;;7.50;4.15;;;5.40;99.90;;;;;;4985227;28;20472;-68
2020/12/12 02:51:23;;;;;;;9.60;4.28;;;5.40;99.90;;;;;;4987956;28;20042;-67
2020/12/12 02:53:49;;;;;;;12.32;6.00;;;5.40;99.90;;;;;;4988727;28;20125;-68
2020/12/12 02:56:17;;;;;;;7.45;4.30;;;5.40;99.90;;;;;;4991948;28;20089;-67
2020/12/12 02:58:44;;;;;;;8.98;4.28;;;5.40;99.90;;;;;;4986792;28;20038;-67
2020/12/12 03:01:15;;;;;;;9.60;4.45;;;5.40;99.90;;;;;;4994801;28;20053;-68
2020/12/12 03:03:42;;;;;;;8.75;4.18;;;5.50;99.90;;;;;;4974300;28;20045;-67
2020/12/12 03:06:08;;;;;;;7.60;4.00;;;5.50;99.90;;;;;;4993630;28;20054;-68
2020/12/12 03:08:34;;;;;;;11.18;5.40;;;5.40;99.90;;;;;;4984964;28;20133;-68
2020/12/12 03:11:01;;;;;;;11.00;5.40;;;5.50;99.90;;;;;;4996568;28;20070;-68
2020/12/12 03:13:27;;;;;;;9.85;5.28;;;5.40;99.90;;;;;;4993398;28;20050;-68
2020/12/12 03:15:53;;;;;;;8.77;4.65;;;5.40;99.90;;;;;;4993434;28;20503;-67
2020/12/12 03:18:20;;;;;;;8.73;4.18;;;5.40;99.90;;;;;;4989413;28;20545;-67
2020/12/12 03:20:46;;;;;;;10.43;4.97;;;5.40;99.90;;;;;;4991685;28;20056;-67
2020/12/12 03:23:14;;;;;;;13.23;5.78;;;5.40;99.90;;;;;;4989873;28;20066;-68
2020/12/12 03:25:40;;;;;;;9.68;5.35;;;5.40;99.90;;;;;;4993929;28;20052;-68
2020/12/12 03:28:08;;;;;;;11.13;4.85;;;5.40;99.90;;;;;;4989578;28;20049;-68
2020/12/12 03:30:36;;;;;;;10.20;4.57;;;5.40;99.90;;;;;;4995163;28;20068;-68
2020/12/12 03:33:04;;;;;;;7.80;3.65;;;5.40;99.90;;;;;;4987912;28;20073;-67
2020/12/12 03:35:32;;;;;;;7.85;4.25;;;5.40;99.90;;;;;;4991079;28;20049;-68
2020/12/12 03:37:59;;;;;;;7.97;4.20;;;5.50;99.90;;;;;;4993683;28;20042;-67
2020/12/12 03:40:31;;;;;;;8.82;4.13;;;5.40;99.90;;;;;;4993029;28;20050;-68
2020/12/12 03:42:58;;;;;;;7.68;3.92;;;5.50;99.90;;;;;;4992616;28;20042;-67
2020/12/12 03:45:24;;;;;;;7.93;4.15;;;5.50;99.90;;;;;;4989507;28;20047;-67
2020/12/12 03:47:51;;;;;;;6.80;3.85;;;5.50;99.90;;;;;;4992270;28;20042;-67
2020/12/12 03:50:17;;;;;;;11.40;6.15;;;5.50;99.90;;;;;;4993215;28;20086;-68
2020/12/12 03:52:44;;;;;;;7.63;3.72;;;5.50;99.90;;;;;;4975320;28;20072;-68
2020/12/12 03:55:10;;;;;;;7.10;4.40;;;5.50;99.90;;;;;;4992576;28;20089;-68
2020/12/12 03:57:38;;;;;;;9.00;4.32;;;5.50;99.90;;;;;;4993180;28;20137;-68
2020/12/12 04:00:05;;;;;;;6.80;3.58;;;5.50;99.90;;;;;;4992577;28;20122;-68
2020/12/12 04:02:31;;;;;;;6.25;3.45;;;5.50;99.90;;;;;;5007279;28;20472;-67
2020/12/12 04:04:58;;;;;;;6.70;3.45;;;5.50;99.90;;;;;;5012063;28;20046;-67
2020/12/12 04:07:24;;;;;;;8.25;4.05;;;5.60;99.90;;;;;;5006265;28;20068;-68
2020/12/12 04:09:51;;;;;;;11.40;5.35;;;5.60;99.90;;;;;;5013752;28;20428;-68
2020/12/12 04:12:17;;;;;;;8.00;4.35;;;5.60;99.90;;;;;;5008351;28;20501;-67
2020/12/12 04:14:43;;;;;;;10.10;4.97;;;5.60;99.90;;;;;;5011832;28;20369;-68
2020/12/12 04:17:10;;;;;;;8.15;4.45;;;5.60;99.90;;;;;;5011458;28;20054;-68
2020/12/12 04:19:36;;;;;;;7.88;4.40;;;5.50;99.90;;;;;;5013051;28;20096;-67
2020/12/12 04:22:03;;;;;;;10.73;5.13;;;5.50;99.90;;;;;;5011799;28;20074;-68
2020/12/12 04:24:30;;;;;;;9.43;4.35;;;5.60;99.90;;;;;;5012240;28;20045;-68
2020/12/12 04:26:56;;;;;;;8.38;4.45;;;5.60;99.90;;;;;;5011484;28;20050;-68
2020/12/12 04:29:23;;;;;;;11.82;5.70;;;5.60;99.90;;;;;;5009701;28;20456;-68
2020/12/12 04:31:49;;;;;;;7.72;4.18;;;5.60;99.90;;;;;;5012470;28;20062;-68
2020/12/12 04:34:16;;;;;;;8.05;4.13;;;5.60;99.90;;;;;;5007581;28;20064;-70
2020/12/12 04:36:43;;;;;;;8.25;4.88;;;5.60;99.90;;;;;;5009663;28;20053;-70
2020/12/12 04:39:10;;;;;;;9.60;4.80;;;5.60;99.90;;;;;;5003958;28;20050;-70
2020/12/12 04:41:40;;;;;;;7.47;4.00;;;5.60;99.90;;;;;;5013287;28;20042;-71
2020/12/12 04:44:07;;;;;;;8.15;3.80;;;5.60;99.90;;;;;;5009670;28;20046;-68
2020/12/12 04:46:36;;;;;;;11.27;3.72;;;5.60;99.90;;;;;;5010561;28;20037;-68
2020/12/12 04:49:04;;;;;;;8.80;4.43;;;5.60;99.90;;;;;;5004411;28;20081;-68
2020/12/12 04:51:32;;;;;;;8.10;4.13;;;5.60;99.90;;;;;;5010590;28;20129;-68
2020/12/12 04:54:01;;;;;;;7.30;3.35;;;5.60;99.90;;;;;;5009789;28;20434;-68
2020/12/12 04:56:34;;;;;;;;;;;5.60;99.90;;;;;;5010313;28;20137;-68
2020/12/12 04:59:03;;;;;;;7.53;3.67;;;5.60;99.90;;;;;;5010168;28;19921;-68
2020/12/12 05:01:32;;;;;;;6.72;3.28;;;5.70;99.90;;;;;;5001988;28;20434;-68
2020/12/12 05:04:01;;;;;;;8.25;3.75;;;5.70;99.90;;;;;;4988893;28;20077;-68
2020/12/12 05:06:32;;;;;;;7.35;3.90;;;5.70;99.90;;;;;;4975558;28;20059;-68
2020/12/12 05:08:59;;;;;;;6.72;3.63;;;5.70;99.90;;;;;;4994846;28;20049;-68
2020/12/12 05:11:26;;;;;;;7.28;3.92;;;5.70;99.90;;;;;;4997310;28;20460;-68
2020/12/12 05:13:52;;;;;;;5.30;3.63;;;5.70;99.90;;;;;;4991078;28;20449;-68
2020/12/12 05:16:19;;;;;;;6.22;3.38;;;5.70;99.90;;;;;;4992800;28;20512;-68
2020/12/12 05:18:48;;;;;;;8.63;4.07;;;5.70;99.90;;;;;;4990855;28;20439;-68
2020/12/12 05:21:15;;;;;;;8.00;4.07;;;5.70;99.90;;;;;;4994559;28;20062;-68
2020/12/12 05:23:41;;;;;;;8.18;3.83;;;5.70;99.90;;;;;;4988028;28;20097;-68
2020/12/12 05:26:09;;;;;;;8.02;3.58;;;5.70;99.90;;;;;;4992343;28;20049;-68
2020/12/12 05:28:35;;;;;;;7.93;4.28;;;5.70;99.90;;;;;;4984219;28;20055;-68
2020/12/12 05:31:02;;;;;;;8.77;4.28;;;5.80;99.90;;;;;;4982058;28;20060;-68
2020/12/12 05:33:28;;;;;;;7.45;3.95;;;5.80;99.90;;;;;;4987403;28;20968;-68
2020/12/12 05:35:55;;;;;;;6.55;3.25;;;5.80;99.90;;;;;;4992806;28;20132;-68
2020/12/12 05:38:21;;;;;;;7.03;3.70;;;5.70;99.90;;;;;;4977468;28;20065;-68
2020/12/12 05:40:55;;;;;;;7.43;3.72;;;5.80;99.90;;;;;;4992892;28;20060;-68
2020/12/12 05:43:32;;;;;;;9.55;3.40;;;5.80;99.90;;;;;;4987338;28;20529;-68
2020/12/12 05:45:59;;;;;;;8.48;4.22;;;5.80;99.90;;;;;;4986490;28;20095;-68
2020/12/12 05:48:26;;;;;;;7.88;3.80;;;5.80;99.90;;;;;;4987396;28;20104;-68
2020/12/12 05:50:53;;;;;;;7.75;3.78;;;5.80;99.90;;;;;;4988873;28;20054;-68
2020/12/12 05:53:20;;;;;;;9.15;4.20;;;5.80;99.90;;;;;;4985359;28;20093;-68
2020/12/12 05:55:46;;;;;;;8.88;3.60;;;5.80;99.90;;;;;;4987191;28;20125;-68
2020/12/12 05:58:16;;;;;;;6.88;3.67;;;5.80;99.90;;;;;;4987484;28;20052;-68
2020/12/12 06:00:42;;;;;;;6.55;3.60;;;5.80;99.90;;;;;;4991970;28;20057;-68
2020/12/12 06:03:32;;;;;;;7.47;3.50;;;5.80;99.90;;;;;;4991323;28;20059;-68
2020/12/12 06:06:04;;;;;;;8.52;4.15;;;5.80;99.90;;;;;;4993729;28;20066;-68
2020/12/12 06:08:37;;;;;;;6.07;3.05;;;5.80;99.90;;;;;;4984224;28;20058;-68
2020/12/12 06:11:08;;;;;;;9.35;3.35;;;5.90;99.90;;;;;;4989613;28;20054;-68
2020/12/12 06:13:37;;;;;;;8.90;3.72;;;5.80;99.90;;;;;;4988941;28;20457;-68
2020/12/12 06:16:06;;;;;;;7.22;3.60;;;5.80;99.90;;;;;;4987770;28;20054;-68
2020/12/12 06:18:52;;;;;;;8.15;4.30;;;5.90;99.90;;;;;;4989740;28;20053;-68
2020/12/12 06:21:22;;;;;;;7.75;3.53;;;5.90;99.90;;;;;;4991848;28;20056;-68
2020/12/12 06:23:49;;;;;;;9.10;4.05;;;5.90;99.90;;;;;;4982472;28;20046;-68
2020/12/12 06:26:20;;;;;;;12.50;4.38;;;5.90;99.90;;;;;;4989969;28;20046;-68
2020/12/12 06:28:47;;;;;;;8.80;4.00;;;5.90;99.90;;;;;;4988559;28;20416;-68
2020/12/12 06:31:13;;;;;;;10.60;3.95;;;5.90;99.90;;;;;;4982930;28;20065;-68
2020/12/12 06:33:51;;;;;;;11.43;4.47;;;5.90;99.90;;;;;;4992800;28;20228;-68
2020/12/12 06:36:29;;;;;;;11.20;4.72;;;5.90;99.90;;;;;;4989338;28;20049;-68
2020/12/12 06:39:17;;;;;;;7.85;3.60;;;5.90;99.90;;;;;;4989516;28;20038;-68
2020/12/12 06:41:43;;;;;;;7.80;4.25;;;6.00;99.90;;;;;;4984525;28;20398;-68
2020/12/12 06:44:11;;;;;;;8.13;3.88;;;6.00;99.90;;;;;;4986979;28;20054;-68
2020/12/12 06:46:51;;;;;;;9.85;4.13;;;5.90;99.90;;;;;;4989915;28;20045;-68
2020/12/12 06:49:18;;;;;;;6.63;3.58;;;6.00;99.90;;;;;;4987496;28;20046;-68
2020/12/12 06:51:44;;;;;;;11.52;4.03;;;6.00;99.90;;;;;;4981837;28;20061;-68
2020/12/12 06:54:11;;;;;;;8.60;4.30;;;6.00;99.90;;;;;;4982754;28;20457;-68
2020/12/12 06:56:37;;;;;;;8.43;3.92;;;6.00;99.90;;;;;;4967305;28;20038;-68
2020/12/12 06:59:27;;;;;;;8.30;4.03;;;6.00;99.90;;;;;;4984610;28;20085;-68
2020/12/12 07:01:58;;;;;;;7.97;4.07;;;6.00;99.90;;;;;;4992668;28;20061;-68
2020/12/12 07:04:30;;;;;;;10.73;4.05;;;6.00;99.90;;;;;;4987486;28;20144;-68
2020/12/12 07:07:00;;;;;;;8.00;3.92;;;6.00;99.90;;;;;;4986036;28;20062;-68
2020/12/12 07:09:27;;;;;;;9.50;4.50;;;6.00;99.90;;;;;;4980347;28;20049;-68
2020/12/12 07:11:55;;;;;;;8.05;3.80;;;6.00;99.90;;;;;;4993282;28;20130;-68
2020/12/12 07:14:21;;;;;;;10.82;4.20;;;6.00;99.90;;;;;;4995664;28;20393;-68
2020/12/12 07:16:57;;;;;;;8.23;4.18;;;6.10;99.90;;;;;;4994329;28;20054;-68
2020/12/12 07:19:38;;;;;;;12.85;4.57;;;6.10;99.90;;;;;;4992976;28;20442;-68
2020/12/12 07:22:08;;;;;;;8.18;3.97;;;6.00;99.90;;;;;;4974007;28;20089;-68
2020/12/12 07:24:35;;;;;;;9.50;4.32;;;6.00;99.90;;;;;;4991462;28;20052;-68
2020/12/12 07:27:02;;;;;;;7.18;3.47;;;6.10;99.90;;;;;;4992164;28;20133;-68
2020/12/12 07:29:30;;;;;;;7.85;3.42;;;6.00;99.90;;;;;;4992963;28;20042;-68
2020/12/12 07:31:57;;;;;;;8.07;3.83;;;6.10;99.90;;;;;;4987467;28;20485;-68
2020/12/12 07:34:25;;;;;;;8.38;4.22;;;6.10;99.90;;;;;;4989670;28;20057;-68
2020/12/12 07:37:12;;;;;;;8.27;3.95;;;6.10;99.90;;;;;;4991079;28;20584;-68
2020/12/12 07:39:41;;;;;;;7.75;3.70;;;6.10;99.90;;;;;;4998097;28;20458;-69
2020/12/12 07:42:11;;;;;;;9.68;4.13;;;6.10;99.90;;;;;;4993276;28;20070;-68
2020/12/12 07:44:40;;;;;;;9.95;3.78;;;6.10;99.90;;;;;;4996066;28;20114;-68
2020/12/12 07:47:09;;;;;;;11.50;4.47;;;6.10;99.90;;;;;;4997346;28;20058;-68
2020/12/12 07:49:37;;;;;;;9.43;3.83;;;6.10;99.90;;;;;;4995001;28;20080;-68
2020/12/12 07:52:07;;;;;;;9.38;4.85;;;6.10;99.90;;;;;;4990085;28;20050;-68
2020/12/12 07:57:26;;;;;;;7.75;3.53;;;6.20;99.90;;;;;;4994727;28;20046;-68
2020/12/12 08:00:08;;;;;;;7.70;3.63;;;6.20;99.90;;;;;;4992503;28;20047;-68
2020/12/12 08:02:34;;;;;;;9.95;3.45;;;6.20;99.90;;;;;;4997010;28;20050;-68
2020/12/12 08:05:02;;;;;;;7.18;3.63;;;6.20;99.90;;;;;;4990833;28;20502;-68
2020/12/12 08:07:30;;;;;;;9.60;4.53;;;6.20;99.90;;;;;;4993391;28;20058;-68
2020/12/12 08:09:57;;;;;;;9.17;3.80;;;6.20;99.90;;;;;;4993475;28;20060;-68
2020/12/12 08:12:30;;;;;;;10.57;4.47;;;6.20;99.90;;;;;;4990416;28;20309;-68
2020/12/12 08:15:13;;;;;;;8.77;4.32;;;6.20;99.90;;;;;;4992102;28;20060;-68
2020/12/12 08:17:40;;;;;;;11.40;4.53;;;6.20;99.90;;;;;;4991009;28;20043;-68
2020/12/12 08:20:13;;;;;;;8.40;4.13;;;6.20;99.90;;;;;;4994100;28;20065;-68
2020/12/12 08:22:40;;;;;;;9.60;4.68;;;6.20;99.90;;;;;;4991052;28;20053;-68
2020/12/12 08:25:09;;;;;;;8.98;4.15;;;6.30;99.90;;;;;;4988602;28;20454;-68
2020/12/12 08:27:36;;;;;;;14.02;5.57;;;6.20;99.90;;;;;;4989855;28;20145;-68
2020/12/12 08:30:06;;;;;;;8.93;4.78;;;6.30;99.90;;;;;;4988840;28;20068;-68
2020/12/12 08:32:41;;;;;;;9.40;4.45;;;6.30;99.90;;;;;;4994954;28;20080;-68
2020/12/12 08:35:11;;;;;;;13.52;4.82;;;6.30;99.90;;;;;;4989696;28;20062;-68
2020/12/12 08:37:38;;;;;;;11.73;5.05;;;6.30;99.90;;;;;;4989433;28;20509;-68
2020/12/12 08:40:09;;;;;;;16.00;6.55;;;6.30;99.90;;;;;;4992888;28;20042;-68
2020/12/12 08:42:36;;;;;;;11.57;5.85;;;6.40;99.90;;;;;;4991023;28;20053;-68
2020/12/12 08:45:32;;;;;;;10.13;5.28;;;6.40;99.90;;;;;;4987785;28;20049;-68
2020/12/12 08:48:04;;;;;;;10.68;5.20;;;6.50;99.90;;;;;;4976737;28;20046;-68
2020/12/12 08:50:53;;;;;;;13.32;5.38;;;6.50;99.90;;;;;;4988029;28;20109;-68
2020/12/12 08:53:41;;;;;;;14.02;6.35;;;6.50;99.90;;;;;;4989667;28;20057;-68
2020/12/12 08:56:12;;;;;;;;;;;6.50;99.90;;;;;;4993864;28;20061;-68
2020/12/12 08:58:39;;;;;;;8.88;4.97;;;6.50;99.90;;;;;;4992285;28;20036;-68
2020/12/12 09:01:20;;;;;;;9.00;4.78;;;6.50;99.90;;;;;;4990603;28;22367;-68
2020/12/12 09:03:51;;;;;;;10.13;4.82;;;6.60;99.90;;;;;;4986345;28;20046;-68
2020/12/12 09:06:18;;;;;;;13.48;6.80;;;6.60;99.90;;;;;;4985788;28;20125;-68
2020/12/12 09:08:44;;;;;;;12.82;6.40;;;6.60;99.90;;;;;;4983481;28;20053;-68
2020/12/12 09:11:15;;;;;;;11.10;6.10;;;6.60;99.90;;;;;;4979999;28;20145;-68
2020/12/12 09:13:42;;;;;;;12.95;6.35;;;6.60;99.90;;;;;;4981016;28;20133;-68
2020/12/12 09:16:10;;;;;;;11.48;6.03;;;6.60;99.90;;;;;;4992712;28;20047;-68
2020/12/12 09:18:44;;;;;;;12.02;6.63;;;6.70;99.90;;;;;;4981741;28;20567;-68
2020/12/12 09:21:10;;;;;;;17.20;7.68;;;6.70;99.90;;;;;;4977321;28;20046;-68
2020/12/12 09:23:37;;;;;;;12.77;7.00;;;6.80;99.90;;;;;;4984142;28;20133;-68
2020/12/12 09:26:05;;;;;;;17.60;6.65;;;6.80;99.90;;;;;;4975819;28;20533;-68
2020/12/12 09:28:32;;;;;;;12.10;6.43;;;6.80;99.90;;;;;;4983920;28;20069;-68
2020/12/12 09:30:58;;;;;;;13.63;6.63;;;6.80;99.90;;;;;;4985670;28;20054;-68
2020/12/12 09:33:25;;;;;;;12.05;6.35;;;6.80;99.90;;;;;;4985111;28;20488;-68
2020/12/12 09:35:51;;;;;;;10.60;6.07;;;6.90;99.90;;;;;;4984156;28;20055;-68
2020/12/12 09:38:17;;;;;;;11.25;5.70;;;6.90;99.90;;;;;;4982416;28;20149;-68
2020/12/12 09:40:46;;;;;;;12.27;6.20;;;6.90;99.90;;;;;;4976769;28;20057;-68
2020/12/12 09:43:14;;;;;;;14.32;7.18;;;6.90;99.90;;;;;;4979079;28;20042;-68
2020/12/12 09:45:45;;;;;;;12.40;6.10;;;7.00;99.90;;;;;;4975173;28;20139;-68
2020/12/12 09:48:12;;;;;;;10.85;6.18;;;7.00;99.90;;;;;;4982750;28;20541;-68
2020/12/12 09:50:39;;;;;;;14.57;6.80;;;7.00;99.90;;;;;;4985985;28;20054;-68
2020/12/12 09:53:08;;;;;;;13.85;6.97;;;7.10;99.90;;;;;;4981826;28;20046;-68
2020/12/12 09:55:38;;;;;;;14.35;6.53;;;7.10;99.90;;;;;;4985504;28;20050;-68
2020/12/12 09:58:06;;;;;;;14.68;6.95;;;7.10;99.90;;;;;;4987506;28;20050;-68
2020/12/12 10:00:35;;;;;;;13.20;6.43;;;7.10;99.90;;;;;;4984263;28;20046;-68
2020/12/12 10:03:02;;;;;;;13.18;7.40;;;7.20;99.90;;;;;;5002750;28;20054;-68
2020/12/12 10:05:28;;;;;;;16.00;6.97;;;7.20;99.90;;;;;;5000587;28;20145;-68
2020/12/12 10:08:00;;;;;;;14.95;7.18;;;7.20;99.90;;;;;;4998237;28;20057;-68
2020/12/12 10:10:27;;;;;;;17.08;7.30;;;7.20;99.90;;;;;;4992083;28;20417;-68
2020/12/12 10:12:54;;;;;;;18.30;7.93;;;7.30;99.90;;;;;;5007699;28;20408;-68
2020/12/12 10:15:21;;;;;;;25.58;8.05;;;7.30;99.90;;;;;;5010862;28;20058;-68
2020/12/12 10:17:48;;;;;;;16.85;7.82;;;7.30;99.90;;;;;;5007860;28;20049;-68
2020/12/12 10:20:15;;;;;;;22.38;8.85;;;7.30;99.90;;;;;;4993067;28;20038;-68
2020/12/12 10:22:42;;;;;;;14.30;7.05;;;7.40;99.90;;;;;;5002646;28;20129;-68
2020/12/12 10:25:09;;;;;;;13.98;7.15;;;7.40;99.90;;;;;;5004226;28;20500;-68
2020/12/12 10:27:36;;;;;;;33.20;9.77;;;7.40;99.90;;;;;;5008978;28;20054;-68
2020/12/12 10:30:06;;;;;;;21.85;8.35;;;7.50;99.90;;;;;;5008874;28;20125;-68
2020/12/12 10:32:35;;;;;;;18.85;7.95;;;7.60;99.90;;;;;;5003714;28;20056;-68
2020/12/12 10:35:03;;;;;;;21.45;8.05;;;7.60;99.90;;;;;;5008394;28;20424;-70
2020/12/12 10:37:29;;;;;;;19.52;8.02;;;7.60;99.90;;;;;;5007962;28;20052;-69
2020/12/12 10:40:16;;;;;;;20.63;8.68;;;7.70;99.90;;;;;;5008289;28;20632;-70
2020/12/12 10:42:42;;;;;;;27.80;7.72;;;7.70;99.90;;;;;;4999377;28;20057;-70
2020/12/12 10:45:09;;;;;;;33.10;11.07;;;7.80;99.90;;;;;;5010636;28;20064;-70
2020/12/12 10:47:35;;;;;;;22.92;8.32;;;7.80;99.90;;;;;;5009242;28;20048;-71
2020/12/12 10:50:03;;;;;;;27.13;8.88;;;7.90;99.90;;;;;;5014148;28;20184;-70
2020/12/12 10:52:36;;;;;;;23.35;9.43;;;7.90;99.90;;;;;;5013457;28;20485;-70
2020/12/12 10:55:04;;;;;;;24.98;8.45;;;8.00;99.90;;;;;;4991391;28;20137;-70
2020/12/12 10:57:32;;;;;;;29.45;10.50;;;8.10;99.90;;;;;;5013512;28;20141;-70
2020/12/12 11:00:00;;;;;;;21.83;9.23;;;8.10;99.90;;;;;;5013378;28;20056;-70
2020/12/12 11:02:32;;;;;;;24.85;8.27;;;8.20;99.90;;;;;;5000455;28;20058;-70
2020/12/12 11:04:59;;;;;;;20.10;8.93;;;8.20;99.90;;;;;;4988506;28;20116;-70
2020/12/12 11:07:26;;;;;;;20.67;8.98;;;8.20;99.90;;;;;;4992205;28;20124;-70
2020/12/12 11:09:52;;;;;;;21.88;9.27;;;8.30;99.90;;;;;;4995530;28;20047;-70
2020/12/12 11:12:19;;;;;;;26.45;9.43;;;8.20;99.90;;;;;;4996483;28;20068;-69
2020/12/12 11:14:47;;;;;;;32.53;10.25;;;8.20;99.90;;;;;;4994518;28;20053;-70
2020/12/12 11:17:14;;;;;;;21.98;9.30;;;8.20;99.90;;;;;;4996086;28;20482;-70
2020/12/12 11:19:40;;;;;;;17.65;8.43;;;8.20;99.90;;;;;;5006783;28;20393;-70
2020/12/12 11:22:07;;;;;;;30.02;9.52;;;8.20;99.90;;;;;;4992880;28;20054;-70
2020/12/12 11:24:33;;;;;;;21.98;9.45;;;8.20;99.90;;;;;;4993194;28;20413;-70
2020/12/12 11:26:59;;;;;;;23.92;9.00;;;8.20;99.90;;;;;;4995586;28;20046;-70
2020/12/12 11:29:25;;;;;;;21.90;9.43;;;8.20;99.90;;;;;;4998516;28;20454;-70
2020/12/12 11:31:53;;;;;;;33.45;10.27;;;8.20;99.90;;;;;;4995125;28;20061;-70
2020/12/12 11:34:29;;;;;;;27.95;9.95;;;8.30;99.90;;;;;;4991214;28;20057;-70
2020/12/12 11:42:56;;;;;;;18.77;8.32;;;8.30;99.90;;;;;;4996784;28;20053;-70
2020/12/12 11:45:40;;;;;;;22.20;8.55;;;8.30;99.90;;;;;;4993010;28;20129;-70
2020/12/12 11:48:07;;;;;;;20.83;9.85;;;8.20;99.90;;;;;;4989316;28;20042;-69
2020/12/12 11:50:34;;;;;;;18.52;8.18;;;8.30;99.90;;;;;;4992587;28;20050;-70
2020/12/12 11:53:00;;;;;;;21.30;8.38;;;8.30;99.90;;;;;;4996483;28;20053;-69
2020/12/12 11:55:27;;;;;;;21.48;7.55;;;8.30;99.90;;;;;;5002627;28;20475;-70
2020/12/12 11:57:53;;;;;;;20.13;7.82;;;8.40;99.90;;;;;;4989775;28;20046;-70
2020/12/12 12:00:21;;;;;;;17.15;7.63;;;8.40;99.90;;;;;;4993290;28;20045;-70
2020/12/12 12:02:47;;;;;;;20.70;7.85;;;8.40;99.90;;;;;;4993991;28;20054;-70
2020/12/12 12:05:14;;;;;;;18.48;7.95;;;8.40;99.90;;;;;;4993514;28;20045;-70
2020/12/12 12:07:44;;;;;;;21.45;7.93;;;8.40;99.90;;;;;;4993409;28;20082;-70
2020/12/12 12:11:07;;;;;;;19.58;7.55;;;8.40;99.90;;;;;;4993875;28;20058;-69
2020/12/12 12:12:59;;;;;;;21.13;8.88;;;8.40;99.90;;;;;;4986444;28;20073;-70
2020/12/12 12:15:25;;;;;;;21.63;9.18;;;8.40;99.90;;;;;;4995284;28;20060;-71
2020/12/12 12:17:51;;;;;;;24.30;9.70;;;8.40;99.90;;;;;;4991885;28;20047;-70
2020/12/12 12:20:21;;;;;;;23.27;10.02;;;8.50;99.90;;;;;;4993615;28;20046;-70
2020/12/12 12:22:47;;;;;;;19.98;8.77;;;8.50;99.90;;;;;;4991118;28;20379;-69
2020/12/12 12:25:13;;;;;;;23.25;9.60;;;8.50;99.90;;;;;;4991995;28;20226;-69
2020/12/12 12:27:41;;;;;;;23.05;9.07;;;8.50;99.90;;;;;;4992124;28;20412;-69
2020/12/12 12:30:07;;;;;;;22.95;10.05;;;8.60;99.90;;;;;;4994615;28;20133;-70
2020/12/12 12:32:34;;;;;;;33.42;11.30;;;8.60;99.90;;;;;;5000376;28;20058;-69
2020/12/12 12:35:01;;;;;;;31.40;9.82;;;8.70;99.90;;;;;;4988633;28;20055;-70
2020/12/12 12:37:27;;;;;;;25.15;9.85;;;8.70;99.90;;;;;;4990933;28;20137;-69
2020/12/12 12:39:53;;;;;;;27.50;9.60;;;8.70;99.90;;;;;;4996657;28;20038;-70
2020/12/12 12:42:22;;;;;;;25.33;8.88;;;8.80;99.90;;;;;;4994000;28;20057;-71
2020/12/12 12:44:49;;;;;;;29.20;10.40;;;8.80;99.90;;;;;;4996907;28;20054;-69
2020/12/12 12:47:15;;;;;;;32.47;9.38;;;8.90;99.90;;;;;;4994687;28;20054;-69
2020/12/12 12:49:41;;;;;;;29.13;10.18;;;8.80;99.90;;;;;;4993629;28;20046;-70
2020/12/12 12:52:08;;;;;;;25.17;9.95;;;8.90;99.90;;;;;;4991300;28;20053;-70
2020/12/12 12:54:34;;;;;;;34.00;11.05;;;8.90;99.90;;;;;;4991080;28;20050;-70
2020/12/12 12:57:00;;;;;;;24.88;10.38;;;8.90;99.90;;;;;;4991316;28;20077;-70
2020/12/12 12:59:26;;;;;;;34.95;12.93;;;8.90;99.90;;;;;;4991968;28;20423;-70
2020/12/12 13:01:52;;;;;;;30.70;12.35;;;8.90;99.90;;;;;;4998387;28;20049;-70
2020/12/12 13:04:19;;;;;;;37.17;13.57;;;8.90;99.90;;;;;;5008242;28;20046;-70
2020/12/12 13:06:45;;;;;;;37.40;12.18;;;8.90;99.90;;;;;;5009067;28;20042;-70
2020/12/12 13:09:29;;;;;;;28.85;10.70;;;8.90;99.90;;;;;;5006009;28;20046;-70